Sample Charts Sidebar
> Live data! Your data is on the web site for you to access within minutes
 
> Detailed data is easily downloaded as data file, which can be opened with Excel
 
> Charts can be customised if necessary
  Chart 1
 

(A maximum of 50 rows are displayed here. Use "Export Data" to see all rows in the date range.)
Date Collected Temperature
(Celcius)
Wind-chill
(Celcius)
Wind Speed
(km/hr)
Gust
(km/hr)
Wind Direction
(degrees)
2020-07-02 23:00 12.8 12.2 3 10 252
2020-07-02 22:00 14.0 13.9 2 7 249
2020-07-02 21:00 15.3 15.3 1 2 72
2020-07-02 20:00 16.5 15.6 4 11 315
2020-07-02 19:00 17.2 16.4 4 9 319
2020-07-02 18:00 17.3 15.5 5 18 341
2020-07-02 17:00 17.6 15.1 6 17 355
2020-07-02 16:00 17.9 14.9 7 21 355
2020-07-02 15:00 17.9 14.5 8 22 344
2020-07-02 14:00 17.8 14.3 8 20 353
2020-07-02 13:00 18.3 15.0 8 19 9
2020-07-02 12:00 19.0 15.4 9 27 353
2020-07-02 11:00 18.3 13.6 10 25 359
2020-07-02 10:00 16.3 12.9 7 21 348
2020-07-02 09:00 17.2 13.4 8 22 348
2020-07-02 08:00 17.1 14.5 6 21 347
2020-07-02 07:00 17.1 13.6 8 19 359
2020-07-02 06:00 17.4 15.0 6 16 3
2020-07-02 05:00 17.1 15.4 5 15 13
2020-07-02 04:00 17.5 16.6 4 11 19
2020-07-02 03:00 17.7 15.2 7 19 357
2020-07-02 02:00 17.8 16.3 5 12 14
2020-07-02 01:00 17.9 16.4 5 19 342
2020-07-02 00:00 18.3 17.6 4 8 24
2020-07-01 23:00 18.3 16.7 5 12 18
2020-07-01 22:00 18.5 15.8 7 19 10
2020-07-01 21:00 18.4 16.6 5 16 18
2020-07-01 20:00 18.5 15.8 7 19 347
2020-07-01 19:00 19.9 17.5 7 21 346
2020-07-01 18:00 20.0 16.6 9 19 347
2020-07-01 17:00 20.4 17.2 9 25 351
2020-07-01 16:00 20.7 18.5 7 21 5
2020-07-01 15:00 20.7 19.1 5 15 350
2020-07-01 14:00 20.4 16.5 10 28 348
2020-07-01 13:00 20.0 16.7 9 30 3
2020-07-01 12:00 19.9 16.8 8 23 6
2020-07-01 11:00 20.8 17.3 9 28 3
2020-07-01 10:00 20.5 17.4 8 21 13
2020-07-01 09:00 19.7 15.7 9 24 16
2020-07-01 08:00 18.9 14.9 9 23 25
2020-07-01 07:00 18.5 16.2 6 15 28
2020-07-01 06:00 18.4 15.4 7 20 28
2020-07-01 05:00 18.3 15.4 7 16 31
2020-07-01 04:00 18.3 13.8 10 22 19
2020-07-01 03:00 18.3 15.0 8 19 28
2020-07-01 02:00 18.5 15.1 8 22 13
2020-07-01 01:00 18.8 15.3 8 21 15
2020-07-01 00:00 18.8 15.4 8 22 355
2020-06-30 23:00 17.5 15.7 5 20 19
2020-06-30 22:00 17.7 15.6 6 13 20